createdAt,value
2022-12-29T00:00:11.371Z,18.88
2022-12-29T00:02:41.839Z,22.67
2022-12-29T00:05:09.305Z,18.90
2022-12-29T00:07:36.407Z,17.77
2022-12-29T00:10:03.516Z,16.23
2022-12-29T00:12:50.334Z,16.02
2022-12-29T00:15:35.956Z,16.00
2022-12-29T00:18:02.848Z,17.60
2022-12-29T00:20:48.254Z,18.83
2022-12-29T00:23:33.733Z,18.13
2022-12-29T00:26:23.542Z,17.92
2022-12-29T00:29:10.809Z,18.17
2022-12-29T00:31:56.128Z,14.40
2022-12-29T00:34:41.642Z,14.95
2022-12-29T00:37:08.635Z,15.85
2022-12-29T00:39:54.114Z,21.65
2022-12-29T00:42:39.572Z,17.17
2022-12-29T00:45:07.100Z,18.45
2022-12-29T00:47:34.023Z,16.35
2022-12-29T00:50:01.076Z,18.27
2022-12-29T00:52:28.796Z,21.30
2022-12-29T00:54:55.532Z,15.30
2022-12-29T00:57:22.250Z,18.83
2022-12-29T00:59:49.119Z,17.67
2022-12-29T01:02:16.335Z,16.58
2022-12-29T01:04:43.766Z,18.73
2022-12-29T01:07:10.543Z,16.90
2022-12-29T01:09:56.660Z,16.92
2022-12-29T01:12:41.678Z,14.80
2022-12-29T01:15:14.318Z,18.48
2022-12-29T01:17:42.660Z,15.43
2022-12-29T01:20:10.029Z,17.73
2022-12-29T01:22:36.789Z,20.08
2022-12-29T01:25:04.346Z,21.48
2022-12-29T01:27:31.208Z,21.13
2022-12-29T01:29:59.358Z,20.50
2022-12-29T01:32:26.227Z,17.48
2022-12-29T01:34:53.061Z,17.48
2022-12-29T01:37:19.855Z,15.90
2022-12-29T01:39:46.687Z,17.23
2022-12-29T01:42:24.135Z,19.17
2022-12-29T01:44:58.130Z,19.73
2022-12-29T01:47:39.010Z,20.60
2022-12-29T01:50:18.454Z,19.23
2022-12-29T01:52:56.936Z,23.08
2022-12-29T01:55:25.274Z,21.90
2022-12-29T01:57:54.282Z,22.77
2022-12-29T02:00:23.714Z,22.05
2022-12-29T02:02:53.863Z,22.45
2022-12-29T02:05:43.806Z,19.92
2022-12-29T02:08:13.831Z,21.70
2022-12-29T02:10:41.670Z,17.65
2022-12-29T02:13:08.647Z,21.25
2022-12-29T02:16:04.223Z,19.95
2022-12-29T02:19:02.575Z,20.55
2022-12-29T02:22:13.960Z,19.25
2022-12-29T02:25:18.325Z,19.73
2022-12-29T02:28:12.407Z,25.38
2022-12-29T02:33:36.954Z,21.13
2022-12-29T02:36:12.758Z,24.48
2022-12-29T02:39:05.350Z,18.00
2022-12-29T02:41:35.957Z,21.13
2022-12-29T02:44:32.455Z,18.85
2022-12-29T02:47:17.069Z,18.80
2022-12-29T02:50:07.285Z,19.00
2022-12-29T02:52:40.270Z,18.80
2022-12-29T02:55:08.102Z,19.88
2022-12-29T02:57:36.717Z,18.52
2022-12-29T03:00:08.955Z,22.02
2022-12-29T03:02:48.100Z,20.73
2022-12-29T03:05:21.163Z,18.73
2022-12-29T03:08:07.667Z,20.55
2022-12-29T03:10:46.398Z,19.33
2022-12-29T03:13:57.368Z,20.38
2022-12-29T03:17:00.694Z,21.75
2022-12-29T03:19:48.787Z,20.08
2022-12-29T03:22:28.202Z,21.23
2022-12-29T03:25:15.054Z,22.85
2022-12-29T03:27:49.937Z,25.83
2022-12-29T03:30:19.241Z,19.15
2022-12-29T03:32:53.782Z,23.33
2022-12-29T03:35:26.086Z,19.80
2022-12-29T03:38:16.998Z,18.75
2022-12-29T03:40:51.175Z,25.08
2022-12-29T03:43:19.013Z,21.55
2022-12-29T03:45:47.579Z,21.10
2022-12-29T03:48:14.701Z,22.13
2022-12-29T03:50:42.155Z,20.42
2022-12-29T03:53:09.687Z,22.70
2022-12-29T03:55:36.560Z,18.77
2022-12-29T03:58:03.296Z,20.83
2022-12-29T04:00:48.696Z,19.65
2022-12-29T04:03:16.258Z,20.25
2022-12-29T04:05:45.382Z,23.52
2022-12-29T04:08:12.441Z,23.20
2022-12-29T04:10:39.672Z,22.33
2022-12-29T04:13:06.520Z,23.95
2022-12-29T04:15:34.451Z,20.63
2022-12-29T04:18:02.084Z,22.52
2022-12-29T04:20:47.850Z,22.33
2022-12-29T04:23:14.740Z,24.85
2022-12-29T04:25:41.635Z,22.02
2022-12-29T04:28:10.029Z,23.08
2022-12-29T04:31:09.198Z,26.67
2022-12-29T04:33:39.623Z,21.77
2022-12-29T04:36:07.547Z,23.40
2022-12-29T04:38:36.057Z,22.60
2022-12-29T04:41:04.735Z,22.75
2022-12-29T04:43:34.029Z,21.85
2022-12-29T04:46:21.235Z,20.88
2022-12-29T04:49:09.372Z,21.88
2022-12-29T04:52:14.759Z,21.02
2022-12-29T04:54:43.232Z,24.33
2022-12-29T04:57:16.523Z,20.50
2022-12-29T04:59:47.083Z,26.55
2022-12-29T05:02:15.755Z,25.10
2022-12-29T05:04:44.023Z,21.13
2022-12-29T05:07:11.247Z,21.73
2022-12-29T05:09:38.241Z,20.20
2022-12-29T05:12:06.209Z,22.80
2022-12-29T05:14:35.247Z,20.48
2022-12-29T05:17:03.491Z,24.92
2022-12-29T05:19:31.051Z,22.17
2022-12-29T05:21:58.036Z,25.95
2022-12-29T05:24:24.800Z,21.33
2022-12-29T05:26:54.924Z,23.23
2022-12-29T05:29:54.449Z,24.80
2022-12-29T05:32:21.411Z,24.98
2022-12-29T05:34:48.285Z,24.23
2022-12-29T05:37:15.036Z,23.17
2022-12-29T05:39:42.471Z,23.00
2022-12-29T05:42:10.035Z,26.08
2022-12-29T05:44:53.113Z,25.23
2022-12-29T05:47:38.651Z,23.63
2022-12-29T05:50:10.911Z,25.05
2022-12-29T05:53:04.011Z,28.52
2022-12-29T05:55:30.974Z,23.20
2022-12-29T05:57:58.312Z,25.98
2022-12-29T06:00:25.201Z,24.80
2022-12-29T06:02:52.292Z,25.73
2022-12-29T06:05:19.236Z,27.23
2022-12-29T06:07:46.477Z,23.90
2022-12-29T06:10:15.843Z,25.80
2022-12-29T06:12:54.728Z,32.22
2022-12-29T06:15:21.664Z,25.98
2022-12-29T06:17:50.564Z,25.33
2022-12-29T06:20:18.214Z,25.48
2022-12-29T06:22:45.153Z,23.17
2022-12-29T06:25:13.048Z,27.38
2022-12-29T06:27:41.538Z,26.08
2022-12-29T06:30:10.039Z,24.58
2022-12-29T06:32:38.957Z,23.08
2022-12-29T06:35:09.080Z,26.15
2022-12-29T06:37:41.000Z,25.42
2022-12-29T06:40:08.388Z,23.65
2022-12-29T06:43:10.491Z,22.75
2022-12-29T06:45:48.422Z,22.08
2022-12-29T06:48:15.291Z,24.73
2022-12-29T06:50:42.300Z,26.40
2022-12-29T06:53:09.043Z,27.40
2022-12-29T06:55:35.865Z,21.50
2022-12-29T06:58:02.802Z,21.17
2022-12-29T07:00:29.810Z,26.38
2022-12-29T07:02:59.298Z,26.92
2022-12-29T07:05:28.797Z,26.33
2022-12-29T07:07:56.746Z,23.80
2022-12-29T07:10:23.781Z,27.63
2022-12-29T07:12:50.896Z,30.50
2022-12-29T07:15:17.800Z,24.38
2022-12-29T07:17:44.712Z,25.38
2022-12-29T07:20:11.923Z,22.92
2022-12-29T07:22:39.681Z,22.55
2022-12-29T07:25:06.816Z,22.88
2022-12-29T07:27:33.868Z,24.08
2022-12-29T07:30:00.730Z,21.17
2022-12-29T07:32:27.604Z,26.23
2022-12-29T07:34:54.466Z,22.20
2022-12-29T07:37:21.344Z,23.35
2022-12-29T07:39:48.263Z,22.17
2022-12-29T07:42:15.066Z,21.80
2022-12-29T07:44:49.980Z,20.52
2022-12-29T07:47:19.655Z,27.35
2022-12-29T07:49:46.483Z,23.40
2022-12-29T07:52:13.387Z,21.48
2022-12-29T07:54:40.184Z,24.35
2022-12-29T07:57:07.331Z,22.13
2022-12-29T07:59:34.174Z,25.15
2022-12-29T08:02:01.097Z,27.27
2022-12-29T08:04:28.008Z,24.08
2022-12-29T08:06:54.754Z,24.58
2022-12-29T08:09:24.040Z,23.17
2022-12-29T08:11:51.569Z,24.60
2022-12-29T08:14:18.479Z,21.88
2022-12-29T08:16:45.253Z,23.33
2022-12-29T08:19:13.146Z,22.08
2022-12-29T08:21:40.224Z,22.55
2022-12-29T08:24:08.786Z,25.10
2022-12-29T08:26:35.870Z,21.77
2022-12-29T08:29:02.791Z,23.95
2022-12-29T08:31:29.696Z,22.92
2022-12-29T08:33:56.599Z,22.73
2022-12-29T08:36:23.830Z,23.48
2022-12-29T08:38:50.690Z,24.60
2022-12-29T08:41:17.435Z,22.45
2022-12-29T08:43:48.367Z,23.83
2022-12-29T08:46:15.591Z,23.67
2022-12-29T08:48:42.476Z,22.92
2022-12-29T08:51:09.583Z,22.52
2022-12-29T08:53:36.816Z,22.15
2022-12-29T08:56:05.749Z,21.13
2022-12-29T08:58:43.049Z,22.77
2022-12-29T09:01:11.923Z,23.70
2022-12-29T09:04:13.578Z,20.98
2022-12-29T09:06:25.891Z,22.60
2022-12-29T09:08:54.493Z,27.50
2022-12-29T09:11:24.420Z,25.13
2022-12-29T09:13:51.696Z,22.48
2022-12-29T09:16:22.764Z,22.45
2022-12-29T09:18:49.841Z,23.92
2022-12-29T09:21:16.947Z,24.90
2022-12-29T09:23:43.763Z,27.48
2022-12-29T09:26:10.550Z,24.80
2022-12-29T09:28:37.817Z,28.42
2022-12-29T09:31:04.861Z,25.65
2022-12-29T09:33:34.347Z,24.63
2022-12-29T09:36:01.354Z,25.02
2022-12-29T09:38:28.702Z,25.00
2022-12-29T09:41:07.660Z,23.13
2022-12-29T09:44:08.082Z,27.02
2022-12-29T09:46:41.371Z,26.98
2022-12-29T09:51:48.809Z,22.73
2022-12-29T09:54:39.747Z,24.20
2022-12-29T09:57:18.484Z,23.33
2022-12-29T09:59:47.706Z,22.80
2022-12-29T10:02:41.424Z,25.25
2022-12-29T10:08:26.715Z,26.20
2022-12-29T10:11:33.272Z,32.40
2022-12-29T10:14:25.259Z,27.83
2022-12-29T10:17:34.232Z,25.35
2022-12-29T10:20:06.907Z,28.05
2022-12-29T10:23:04.569Z,29.38
2022-12-29T10:25:39.296Z,25.73
2022-12-29T10:28:35.785Z,28.15
2022-12-29T10:31:09.209Z,24.50
2022-12-29T10:33:43.539Z,26.45
2022-12-29T10:36:20.152Z,22.45
2022-12-29T10:39:09.350Z,25.23
2022-12-29T10:41:54.230Z,24.67
2022-12-29T10:44:21.690Z,27.55
2022-12-29T10:47:03.640Z,27.08
2022-12-29T10:49:33.107Z,31.02
2022-12-29T10:52:03.940Z,24.85
2022-12-29T10:54:40.747Z,28.17
2022-12-29T10:57:26.758Z,23.90
2022-12-29T10:59:53.732Z,26.08
2022-12-29T11:02:20.484Z,24.83
2022-12-29T11:04:56.930Z,28.40
2022-12-29T11:07:27.653Z,28.27
2022-12-29T11:09:55.074Z,25.95
2022-12-29T11:12:23.781Z,27.58
2022-12-29T11:15:03.380Z,25.67
2022-12-29T11:17:30.526Z,29.42
2022-12-29T11:19:57.332Z,31.02
2022-12-29T11:22:28.147Z,27.58
2022-12-29T11:25:06.271Z,27.33
2022-12-29T11:27:33.943Z,25.65
2022-12-29T11:30:00.768Z,29.02
2022-12-29T11:32:32.617Z,28.05
2022-12-29T11:35:00.451Z,26.85
2022-12-29T11:37:43.549Z,25.77
2022-12-29T11:40:21.891Z,25.55
2022-12-29T11:43:04.838Z,26.55
2022-12-29T11:45:47.743Z,25.77
2022-12-29T11:48:20.784Z,27.10
2022-12-29T11:50:56.921Z,26.42
2022-12-29T11:53:40.467Z,27.20
2022-12-29T11:56:13.597Z,28.10
2022-12-29T11:58:40.720Z,24.67
2022-12-29T12:01:35.166Z,25.45
2022-12-29T12:04:08.956Z,26.23
2022-12-29T12:06:42.510Z,26.52
2022-12-29T12:09:24.775Z,26.65
2022-12-29T12:11:55.632Z,25.63
2022-12-29T12:14:28.862Z,28.25
2022-12-29T12:17:48.967Z,25.58
2022-12-29T12:20:57.596Z,29.45
2022-12-29T12:23:45.928Z,26.10
2022-12-29T12:26:47.556Z,25.83
2022-12-29T12:29:23.511Z,25.20
2022-12-29T12:32:26.067Z,30.27
2022-12-29T12:34:53.118Z,28.40
2022-12-29T12:37:50.463Z,26.23
2022-12-29T12:40:32.714Z,33.55
2022-12-29T12:43:26.147Z,28.45
2022-12-29T12:46:19.525Z,27.50
2022-12-29T12:48:46.261Z,26.60
2022-12-29T12:51:22.444Z,30.83
2022-12-29T12:53:54.829Z,30.00
2022-12-29T12:56:24.624Z,34.80
2022-12-29T12:59:13.270Z,31.38
2022-12-29T13:01:45.785Z,32.25
2022-12-29T13:04:52.145Z,27.30
2022-12-29T13:07:57.589Z,32.22
2022-12-29T13:10:38.728Z,30.08
2022-12-29T13:13:16.268Z,30.98
2022-12-29T13:16:16.795Z,31.75
2022-12-29T13:18:55.399Z,31.05
2022-12-29T13:22:05.953Z,30.27
2022-12-29T13:24:43.124Z,32.45
2022-12-29T13:27:30.789Z,29.40
2022-12-29T13:30:24.845Z,31.77
2022-12-29T13:33:22.017Z,30.60
2022-12-29T13:36:28.126Z,30.10
2022-12-29T13:39:10.061Z,30.58
2022-12-29T13:41:53.126Z,32.45
2022-12-29T13:44:39.853Z,33.55
2022-12-29T13:47:43.334Z,29.50
2022-12-29T13:50:17.995Z,31.05
2022-12-29T13:53:11.235Z,34.83
2022-12-29T13:56:14.928Z,34.15
2022-12-29T13:59:06.078Z,33.80
2022-12-29T14:01:36.826Z,32.78
2022-12-29T14:04:14.854Z,34.95
2022-12-29T14:06:43.382Z,33.75
2022-12-29T14:09:35.232Z,33.03
2022-12-29T14:12:02.675Z,34.38
2022-12-29T14:14:32.882Z,35.53
2022-12-29T14:17:14.736Z,33.08
2022-12-29T14:19:44.821Z,33.92
2022-12-29T14:22:13.624Z,34.17
2022-12-29T14:24:46.642Z,35.08
2022-12-29T14:27:13.394Z,31.83
2022-12-29T14:29:40.062Z,36.17
2022-12-29T14:32:25.172Z,35.05
2022-12-29T14:34:56.528Z,36.45
2022-12-29T14:37:29.717Z,36.00
2022-12-29T14:40:21.032Z,42.78
2022-12-29T14:42:49.679Z,36.20
2022-12-29T14:45:16.500Z,36.05
2022-12-29T14:47:49.418Z,34.15
2022-12-29T14:50:33.577Z,35.50
2022-12-29T14:53:04.606Z,37.05
2022-12-29T14:55:47.852Z,44.10
2022-12-29T14:58:20.858Z,41.53
2022-12-29T15:00:49.141Z,38.30
2022-12-29T15:03:21.700Z,47.63
2022-12-29T15:05:55.616Z,39.20
2022-12-29T15:08:37.697Z,40.33
2022-12-29T15:11:18.914Z,38.50
2022-12-29T15:13:47.272Z,41.63
2022-12-29T15:16:36.964Z,41.45
2022-12-29T15:19:06.233Z,42.53
2022-12-29T15:21:37.307Z,41.28
2022-12-29T15:24:11.691Z,36.85
2022-12-29T15:26:45.079Z,43.17
2022-12-29T15:32:01.588Z,41.40
2022-12-29T15:34:32.123Z,41.28
2022-12-29T15:37:00.557Z,44.15
2022-12-29T15:39:32.307Z,41.03
2022-12-29T15:42:10.679Z,38.58
2022-12-29T15:44:39.311Z,44.90
2022-12-29T15:47:29.662Z,39.17
2022-12-29T15:50:04.614Z,44.85
2022-12-29T15:52:34.258Z,41.58
2022-12-29T15:55:02.486Z,45.42
2022-12-29T15:57:37.271Z,43.15
2022-12-29T16:02:40.253Z,46.13
2022-12-29T16:05:18.255Z,41.00
2022-12-29T16:08:00.272Z,46.03
2022-12-29T16:10:42.144Z,42.65
2022-12-29T16:13:29.674Z,38.97
2022-12-29T16:16:39.635Z,43.88
2022-12-29T16:19:16.882Z,45.13
2022-12-29T16:21:45.025Z,47.47
2022-12-29T16:24:17.645Z,43.65
2022-12-29T16:26:54.879Z,46.08
2022-12-29T16:29:22.830Z,43.88
2022-12-29T16:32:01.585Z,46.28
2022-12-29T16:34:34.311Z,47.80
2022-12-29T16:37:06.323Z,44.97
2022-12-29T16:39:42.077Z,40.80
2022-12-29T16:42:39.729Z,47.45
2022-12-29T16:45:24.337Z,43.35
2022-12-29T16:48:06.545Z,44.90
2022-12-29T16:50:41.217Z,44.67
2022-12-29T16:53:29.399Z,44.20
2022-12-29T16:55:58.459Z,45.97
2022-12-29T16:58:32.401Z,48.33
2022-12-29T17:01:01.400Z,44.72
2022-12-29T17:03:39.699Z,45.85
2022-12-29T17:06:06.824Z,45.50
2022-12-29T17:08:44.674Z,48.53
2022-12-29T17:11:45.754Z,44.50
2022-12-29T17:14:33.900Z,49.38
2022-12-29T17:17:01.501Z,47.88
2022-12-29T17:19:37.587Z,48.85
2022-12-29T17:22:10.314Z,45.88
2022-12-29T17:24:38.401Z,44.28
2022-12-29T17:27:05.610Z,43.67
2022-12-29T17:29:39.488Z,44.50
2022-12-29T17:32:10.681Z,49.88
2022-12-29T17:34:37.513Z,52.05
2022-12-29T17:37:09.355Z,44.80
2022-12-29T17:39:36.079Z,44.85
2022-12-29T17:42:02.832Z,47.97
2022-12-29T17:44:29.704Z,46.50
2022-12-29T17:46:56.519Z,47.42
2022-12-29T17:49:23.380Z,50.40
2022-12-29T17:51:50.144Z,52.47
2022-12-29T17:54:22.432Z,47.97
2022-12-29T17:56:49.666Z,47.58
2022-12-29T17:59:16.865Z,49.63
2022-12-29T18:01:45.946Z,47.10
2022-12-29T18:04:14.764Z,49.08
2022-12-29T18:06:42.970Z,53.67
2022-12-29T18:09:10.837Z,48.58
2022-12-29T18:11:43.314Z,47.05
2022-12-29T18:14:14.991Z,45.15
2022-12-29T18:16:42.445Z,48.60
2022-12-29T18:19:09.797Z,49.75
2022-12-29T18:21:38.455Z,50.75
2022-12-29T18:24:06.866Z,46.63
2022-12-29T18:26:35.740Z,52.20
2022-12-29T18:29:02.944Z,50.83
2022-12-29T18:31:33.320Z,49.60
2022-12-29T18:34:03.150Z,51.03
2022-12-29T18:36:30.160Z,47.80
2022-12-29T18:38:56.969Z,48.20
2022-12-29T18:41:29.877Z,50.35
2022-12-29T18:43:57.797Z,51.60
2022-12-29T18:46:24.737Z,55.97
2022-12-29T18:48:52.765Z,46.60
2022-12-29T18:51:24.506Z,46.40
2022-12-29T18:53:54.569Z,54.08
2022-12-29T18:56:22.910Z,52.83
2022-12-29T18:58:50.217Z,48.28
2022-12-29T19:01:22.178Z,55.20
2022-12-29T19:03:49.725Z,49.15
2022-12-29T19:06:16.748Z,54.42
2022-12-29T19:08:43.716Z,54.03
2022-12-29T19:11:10.545Z,52.90
2022-12-29T19:13:37.368Z,51.35
2022-12-29T19:16:04.317Z,52.65
2022-12-29T19:18:43.516Z,56.83
2022-12-29T19:21:11.643Z,55.05
2022-12-29T19:23:38.468Z,51.97
2022-12-29T19:26:05.362Z,53.25
2022-12-29T19:28:32.380Z,50.75
2022-12-29T19:31:02.391Z,52.40
2022-12-29T19:33:29.744Z,54.60
2022-12-29T19:36:03.066Z,50.65
2022-12-29T19:40:56.932Z,53.63
2022-12-29T19:43:23.797Z,53.38
2022-12-29T19:45:52.509Z,53.78
2022-12-29T19:48:21.130Z,50.47
2022-12-29T19:50:48.190Z,55.30
2022-12-29T19:53:16.041Z,51.35
2022-12-29T19:55:44.666Z,51.20
2022-12-29T19:58:11.917Z,50.05
2022-12-29T20:00:43.073Z,55.83
2022-12-29T20:03:10.946Z,53.22
2022-12-29T20:05:38.611Z,56.85
2022-12-29T20:08:05.651Z,53.83
2022-12-29T20:10:32.461Z,51.92
2022-12-29T20:12:59.301Z,48.15
2022-12-29T20:15:26.099Z,57.92
2022-12-29T20:20:39.619Z,48.25
2022-12-29T20:23:06.558Z,54.13
2022-12-29T20:25:48.627Z,49.80
2022-12-29T20:28:17.072Z,48.17
2022-12-29T20:30:44.519Z,51.65
2022-12-29T20:33:11.654Z,51.55
2022-12-29T20:35:38.457Z,54.42
2022-12-29T20:38:05.879Z,51.28
2022-12-29T20:40:33.000Z,47.50
2022-12-29T20:42:59.821Z,55.88
2022-12-29T20:45:26.806Z,50.33
2022-12-29T20:47:54.787Z,54.97
2022-12-29T20:50:21.706Z,53.88
2022-12-29T20:52:48.555Z,56.00
2022-12-29T20:55:15.399Z,48.83
2022-12-29T20:58:22.124Z,51.40
2022-12-29T21:00:30.743Z,51.00
2022-12-29T21:02:58.875Z,52.78
2022-12-29T21:05:26.138Z,50.92
2022-12-29T21:07:53.761Z,54.17
2022-12-29T21:10:21.291Z,57.13
2022-12-29T21:12:48.649Z,53.08
2022-12-29T21:15:16.185Z,51.75
2022-12-29T21:17:43.977Z,51.42
2022-12-29T21:20:29.711Z,53.55
2022-12-29T21:23:01.234Z,56.88
2022-12-29T21:25:39.242Z,53.38
2022-12-29T21:28:12.293Z,50.15
2022-12-29T21:30:39.986Z,56.70
2022-12-29T21:33:06.957Z,63.35
2022-12-29T21:35:38.877Z,51.05
2022-12-29T21:38:06.664Z,51.65
2022-12-29T21:40:36.132Z,58.15
2022-12-29T21:43:03.624Z,48.72
2022-12-29T21:45:32.466Z,53.88
2022-12-29T21:48:21.267Z,50.63
2022-12-29T21:51:09.454Z,48.22
2022-12-29T21:53:41.329Z,51.75
2022-12-29T21:56:20.123Z,49.63
2022-12-29T21:59:08.183Z,50.00
2022-12-29T22:01:57.873Z,46.50
2022-12-29T22:04:44.646Z,51.53
2022-12-29T22:07:31.559Z,52.95
2022-12-29T22:10:17.185Z,49.88
2022-12-29T22:13:03.254Z,45.38
2022-12-29T22:15:35.995Z,53.08
2022-12-29T22:20:33.300Z,52.83
2022-12-29T22:23:00.897Z,53.20
2022-12-29T22:25:28.687Z,50.33
2022-12-29T22:27:59.498Z,46.63
2022-12-29T22:30:27.869Z,49.00
2022-12-29T22:32:58.158Z,54.65
2022-12-29T22:35:26.300Z,51.30
2022-12-29T22:37:54.488Z,46.85
2022-12-29T22:40:21.360Z,56.55
2022-12-29T22:42:48.389Z,50.42
2022-12-29T22:45:15.354Z,52.65
2022-12-29T22:47:42.153Z,51.28
2022-12-29T22:50:09.607Z,49.67
2022-12-29T22:52:36.821Z,53.38
2022-12-29T22:55:07.081Z,54.30
2022-12-29T22:57:34.845Z,52.45
2022-12-29T23:00:08.142Z,54.58
2022-12-29T23:02:55.041Z,51.95
2022-12-29T23:05:22.005Z,52.00
2022-12-29T23:07:48.803Z,52.72
2022-12-29T23:10:15.656Z,51.88
2022-12-29T23:12:42.443Z,51.55
2022-12-29T23:15:10.913Z,56.50
2022-12-29T23:17:37.858Z,56.40
2022-12-29T23:20:07.182Z,53.72
2022-12-29T23:22:33.967Z,53.25
2022-12-29T23:25:00.767Z,49.60
2022-12-29T23:27:27.535Z,57.85
2022-12-29T23:29:54.247Z,55.65
2022-12-29T23:32:21.953Z,51.28
2022-12-29T23:34:48.715Z,48.95
2022-12-29T23:37:15.517Z,52.17
2022-12-29T23:39:42.480Z,53.63
2022-12-29T23:42:09.416Z,53.53
2022-12-29T23:44:36.181Z,58.55
2022-12-29T23:47:03.044Z,49.85
2022-12-29T23:49:29.853Z,50.65
2022-12-29T23:51:56.687Z,51.53
2022-12-29T23:54:23.523Z,54.05
2022-12-29T23:56:50.280Z,53.63
2022-12-29T23:59:17.063Z,47.53
